createdAt,value
2023-08-14T00:01:12.231Z,99.90
2023-08-14T00:03:40.160Z,99.90
2023-08-14T00:06:08.017Z,99.90
2023-08-14T00:08:35.862Z,99.90
2023-08-14T00:11:05.118Z,99.90
2023-08-14T00:13:50.382Z,99.90
2023-08-14T00:16:18.868Z,99.90
2023-08-14T00:18:46.928Z,99.90
2023-08-14T00:21:14.852Z,99.90
2023-08-14T00:23:42.748Z,99.90
2023-08-14T00:26:12.495Z,99.90
2023-08-14T00:28:40.553Z,99.90
2023-08-14T00:31:08.455Z,99.90
2023-08-14T00:33:36.373Z,99.90
2023-08-14T00:36:06.612Z,99.90
2023-08-14T00:38:34.459Z,99.90
2023-08-14T00:41:02.723Z,99.90
2023-08-14T00:43:32.027Z,99.90
2023-08-14T00:46:00.126Z,99.90
2023-08-14T00:48:28.625Z,99.90
2023-08-14T00:50:56.894Z,99.90
2023-08-14T00:53:27.803Z,99.90
2023-08-14T00:55:56.221Z,99.90
2023-08-14T00:58:25.010Z,99.90
2023-08-14T01:00:56.401Z,99.90
2023-08-14T01:03:26.294Z,99.90
2023-08-14T01:05:54.194Z,99.90
2023-08-14T01:08:22.232Z,91.20
2023-08-14T01:11:00.315Z,89.60
2023-08-14T01:13:33.701Z,89.90
2023-08-14T01:16:07.639Z,90.70
2023-08-14T01:18:37.947Z,91.90
2023-08-14T01:21:14.838Z,91.70
2023-08-14T01:23:51.780Z,92.50
2023-08-14T01:26:21.073Z,94.30
2023-08-14T01:28:49.188Z,95.00
2023-08-14T01:31:17.024Z,96.00
2023-08-14T01:33:44.890Z,96.20
2023-08-14T01:36:21.832Z,96.20
2023-08-14T01:38:55.962Z,96.40
2023-08-14T01:41:33.000Z,96.40
2023-08-14T01:44:04.704Z,95.80
2023-08-14T01:46:35.282Z,95.70
2023-08-14T01:49:04.599Z,96.20
2023-08-14T01:51:33.574Z,96.70
2023-08-14T01:54:01.743Z,96.90
2023-08-14T01:56:30.936Z,96.70
2023-08-14T01:58:58.769Z,96.50
2023-08-14T02:01:26.755Z,96.60
2023-08-14T02:03:54.728Z,97.00
2023-08-14T02:06:22.747Z,98.10
2023-08-14T02:08:50.567Z,98.40
2023-08-14T02:11:18.571Z,98.60
2023-08-14T02:13:47.749Z,98.60
2023-08-14T02:16:15.630Z,98.90
2023-08-14T02:18:43.464Z,99.30
2023-08-14T02:21:11.308Z,99.30
2023-08-14T02:23:39.144Z,99.50
2023-08-14T02:26:06.951Z,99.30
2023-08-14T02:28:34.787Z,99.10
2023-08-14T02:31:05.466Z,98.60
2023-08-14T02:33:33.326Z,98.50
2023-08-14T02:36:01.156Z,98.60
2023-08-14T02:38:31.487Z,98.40
2023-08-14T02:40:59.409Z,98.90
2023-08-14T02:43:27.282Z,99.20
2023-08-14T02:45:55.207Z,99.50
2023-08-14T02:48:25.197Z,99.90
2023-08-14T02:50:52.987Z,99.90
2023-08-14T02:53:20.812Z,99.90
2023-08-14T02:55:52.440Z,99.90
2023-08-14T02:58:20.772Z,99.90
2023-08-14T03:00:49.227Z,99.90
2023-08-14T03:03:17.546Z,99.90
2023-08-14T03:05:46.829Z,99.90
2023-08-14T03:08:14.700Z,99.90
2023-08-14T03:10:42.557Z,99.90
2023-08-14T03:13:10.395Z,99.90
2023-08-14T03:15:38.217Z,99.90
2023-08-14T03:18:06.398Z,99.90
2023-08-14T03:20:34.326Z,99.90
2023-08-14T03:23:03.599Z,99.90
2023-08-14T03:25:31.427Z,99.90
2023-08-14T03:27:59.256Z,99.90
2023-08-14T03:30:27.327Z,99.90
2023-08-14T03:32:55.256Z,99.90
2023-08-14T03:35:23.140Z,99.90
2023-08-14T03:37:51.098Z,99.90
2023-08-14T03:40:20.350Z,99.90
2023-08-14T03:42:48.241Z,99.90
2023-08-14T03:45:16.100Z,99.90
2023-08-14T03:47:44.001Z,99.90
2023-08-14T03:50:11.965Z,99.90
2023-08-14T03:52:39.881Z,99.90
2023-08-14T03:55:07.977Z,99.90
2023-08-14T03:57:37.170Z,99.90
2023-08-14T04:00:05.983Z,99.90
2023-08-14T04:02:33.832Z,99.90
2023-08-14T04:05:01.667Z,99.90
2023-08-14T04:07:29.569Z,99.90
2023-08-14T04:09:57.406Z,99.90
2023-08-14T04:12:25.302Z,99.90
2023-08-14T04:14:54.548Z,99.90
2023-08-14T04:17:22.435Z,99.90
2023-08-14T04:19:50.239Z,99.90
2023-08-14T04:22:18.260Z,99.90
2023-08-14T04:24:47.392Z,99.90
2023-08-14T04:27:15.224Z,99.90
2023-08-14T04:29:43.055Z,99.90
2023-08-14T04:32:12.308Z,99.90
2023-08-14T04:34:40.171Z,99.90
2023-08-14T04:37:08.550Z,99.90
2023-08-14T04:39:36.662Z,99.90
2023-08-14T04:42:04.763Z,99.90
2023-08-14T04:44:32.628Z,99.90
2023-08-14T04:47:00.933Z,99.90
2023-08-14T04:49:30.997Z,99.90
2023-08-14T04:51:58.978Z,99.90
2023-08-14T04:54:27.542Z,99.90
2023-08-14T04:56:55.441Z,99.90
2023-08-14T04:59:23.289Z,99.90
2023-08-14T05:01:51.182Z,99.90
2023-08-14T05:04:19.215Z,99.90
2023-08-14T05:06:48.461Z,99.90
2023-08-14T05:09:26.724Z,99.90
2023-08-14T05:11:55.523Z,99.90
2023-08-14T05:14:23.428Z,99.90
2023-08-14T05:16:51.508Z,99.50
2023-08-14T05:19:19.527Z,99.90
2023-08-14T05:21:48.847Z,99.90
2023-08-14T05:24:17.612Z,99.90
2023-08-14T05:26:45.573Z,99.90
2023-08-14T05:29:13.418Z,99.90
2023-08-14T05:31:41.277Z,99.90
2023-08-14T05:34:09.147Z,99.60
2023-08-14T05:36:37.011Z,98.70
2023-08-14T05:39:09.641Z,97.10
2023-08-14T05:41:37.497Z,97.20
2023-08-14T05:44:06.574Z,93.80
2023-08-14T05:46:34.546Z,93.10
2023-08-14T05:49:02.431Z,93.20
2023-08-14T05:51:30.309Z,93.80
2023-08-14T05:53:58.167Z,95.40
2023-08-14T05:56:27.316Z,96.70
2023-08-14T05:58:58.757Z,93.20
2023-08-14T06:01:27.792Z,91.80
2023-08-14T06:03:56.140Z,89.90
2023-08-14T06:06:24.378Z,87.70
2023-08-14T06:08:52.224Z,90.80
2023-08-14T06:11:20.086Z,86.20
2023-08-14T06:13:49.280Z,80.20
2023-08-14T06:16:17.228Z,79.70
2023-08-14T06:18:45.100Z,78.50
2023-08-14T06:21:12.935Z,80.90
2023-08-14T06:23:40.749Z,81.20
2023-08-14T06:26:08.571Z,79.70
2023-08-14T06:28:36.385Z,79.90
2023-08-14T06:31:05.608Z,80.30
2023-08-14T06:33:33.523Z,77.00
2023-08-14T06:36:01.678Z,75.20
2023-08-14T06:38:29.708Z,76.70
2023-08-14T06:40:57.512Z,74.90
2023-08-14T06:43:25.468Z,75.00
2023-08-14T06:45:53.292Z,75.10
2023-08-14T06:48:22.986Z,74.90
2023-08-14T06:50:50.838Z,73.10
2023-08-14T06:53:18.682Z,76.30
2023-08-14T06:55:48.537Z,72.20
2023-08-14T06:58:16.385Z,72.80
2023-08-14T07:00:44.249Z,72.20
2023-08-14T07:03:12.108Z,71.60
2023-08-14T07:05:41.322Z,72.20
2023-08-14T07:08:09.177Z,71.40
2023-08-14T07:10:37.035Z,72.40
2023-08-14T07:13:05.552Z,73.50
2023-08-14T07:15:33.396Z,72.60
2023-08-14T07:18:01.288Z,72.80
2023-08-14T07:20:29.226Z,73.40
2023-08-14T07:22:58.510Z,76.30
2023-08-14T07:25:26.590Z,76.70
2023-08-14T07:27:54.556Z,78.10
2023-08-14T07:30:22.406Z,76.90
2023-08-14T07:32:50.279Z,77.60
2023-08-14T07:35:18.343Z,76.00
2023-08-14T07:37:46.179Z,75.20
2023-08-14T07:40:15.645Z,73.40
2023-08-14T07:42:43.696Z,72.90
2023-08-14T07:45:11.939Z,73.90
2023-08-14T07:47:39.842Z,73.40
2023-08-14T07:50:08.913Z,74.10
2023-08-14T07:52:37.055Z,73.60
2023-08-14T07:55:05.832Z,73.20
2023-08-14T07:57:35.046Z,72.50
2023-08-14T08:00:08.329Z,71.70
2023-08-14T08:02:36.188Z,70.70
2023-08-14T08:05:05.422Z,68.70
2023-08-14T08:07:33.248Z,66.10
2023-08-14T08:10:02.577Z,67.10
2023-08-14T08:12:30.782Z,66.00
2023-08-14T08:14:59.960Z,64.80
2023-08-14T08:17:27.833Z,64.40
2023-08-14T08:19:55.682Z,63.20
2023-08-14T08:22:23.568Z,62.80
2023-08-14T08:24:51.568Z,62.90
2023-08-14T08:27:19.382Z,61.60
2023-08-14T08:29:47.283Z,64.10
2023-08-14T08:32:16.897Z,66.00
2023-08-14T08:34:44.942Z,66.00
2023-08-14T08:37:12.801Z,65.90
2023-08-14T08:39:40.634Z,64.40
2023-08-14T08:42:10.830Z,64.00
2023-08-14T08:44:44.863Z,61.00
2023-08-14T08:47:18.913Z,62.20
2023-08-14T08:49:46.975Z,60.30
2023-08-14T08:52:16.818Z,58.00
2023-08-14T08:54:44.950Z,63.10
2023-08-14T08:57:14.069Z,62.00
2023-08-14T08:59:42.562Z,64.00
2023-08-14T09:02:10.737Z,61.20
2023-08-14T09:04:40.083Z,59.60
2023-08-14T09:07:08.563Z,60.40
2023-08-14T09:09:36.524Z,58.10
2023-08-14T09:12:04.705Z,59.00
2023-08-14T09:14:32.574Z,57.10
2023-08-14T09:17:04.005Z,57.90
2023-08-14T09:19:32.179Z,56.00
2023-08-14T09:22:01.662Z,55.50
2023-08-14T09:24:29.637Z,55.20
2023-08-14T09:26:57.460Z,54.20
2023-08-14T09:29:25.326Z,54.30
2023-08-14T09:31:54.403Z,53.90
2023-08-14T09:34:22.355Z,55.30
2023-08-14T09:36:51.212Z,55.40
2023-08-14T09:39:20.549Z,55.50
2023-08-14T09:41:49.222Z,54.90
2023-08-14T09:44:19.917Z,55.80
2023-08-14T09:46:49.844Z,56.60
2023-08-14T09:49:19.133Z,54.60
2023-08-14T09:51:56.349Z,53.80
2023-08-14T09:54:34.468Z,53.20
2023-08-14T09:57:08.549Z,53.60
2023-08-14T09:59:36.875Z,52.60
2023-08-14T10:02:07.524Z,52.90
2023-08-14T10:04:37.375Z,52.70
2023-08-14T10:07:05.970Z,53.50
2023-08-14T10:09:39.112Z,53.90
2023-08-14T10:12:13.482Z,53.90
2023-08-14T10:14:45.524Z,54.90
2023-08-14T10:17:19.111Z,53.60
2023-08-14T10:19:50.144Z,54.70
2023-08-14T10:22:19.510Z,55.90
2023-08-14T10:24:49.749Z,54.50
2023-08-14T10:27:17.664Z,55.20
2023-08-14T10:29:46.954Z,54.30
2023-08-14T10:32:15.709Z,56.00
2023-08-14T10:34:44.881Z,56.50
2023-08-14T10:37:26.972Z,57.60
2023-08-14T10:39:59.993Z,57.60
2023-08-14T10:42:27.876Z,57.50
2023-08-14T10:44:55.834Z,57.30
2023-08-14T10:47:24.660Z,55.90
2023-08-14T10:49:52.663Z,54.90
2023-08-14T10:52:21.749Z,54.60
2023-08-14T10:54:52.899Z,54.90
2023-08-14T10:57:30.543Z,54.10
2023-08-14T10:59:59.953Z,52.30
2023-08-14T11:02:30.276Z,50.90
2023-08-14T11:05:02.078Z,51.50
2023-08-14T11:07:30.496Z,50.90
2023-08-14T11:10:00.766Z,53.40
2023-08-14T11:12:33.181Z,52.70
2023-08-14T11:15:01.073Z,51.60
2023-08-14T11:17:29.552Z,52.20
2023-08-14T11:19:57.416Z,53.10
2023-08-14T11:22:25.256Z,50.80
2023-08-14T11:24:53.232Z,51.50
2023-08-14T11:27:21.084Z,52.30
2023-08-14T11:29:53.533Z,54.70
2023-08-14T11:32:23.479Z,57.10
2023-08-14T11:34:52.439Z,58.90
2023-08-14T11:37:20.348Z,60.20
2023-08-14T11:39:48.815Z,61.70
2023-08-14T11:42:17.674Z,62.70
2023-08-14T11:44:45.902Z,63.80
2023-08-14T11:47:15.137Z,64.90
2023-08-14T11:49:43.039Z,65.00
2023-08-14T11:52:10.865Z,65.90
2023-08-14T11:54:38.784Z,65.70
2023-08-14T11:57:08.741Z,66.40
2023-08-14T11:59:39.024Z,63.90
2023-08-14T12:02:08.036Z,66.70
2023-08-14T12:04:41.602Z,76.20
2023-08-14T12:07:09.677Z,79.90
2023-08-14T12:13:25.089Z,99.90
2023-08-14T12:15:53.461Z,99.90
2023-08-14T12:18:25.359Z,99.90
2023-08-14T12:24:45.673Z,99.90
2023-08-14T12:27:17.604Z,99.90
2023-08-14T12:29:46.469Z,99.90
2023-08-14T12:32:14.720Z,99.90
2023-08-14T12:34:41.741Z,99.90
2023-08-14T12:37:12.090Z,99.90
2023-08-14T12:39:40.063Z,99.90
2023-08-14T12:42:09.746Z,99.90
2023-08-14T12:44:37.641Z,99.90
2023-08-14T12:47:05.769Z,99.90
2023-08-14T12:49:37.757Z,99.90
2023-08-14T12:52:10.125Z,99.90
2023-08-14T12:54:40.090Z,99.90
2023-08-14T12:57:09.697Z,99.90
2023-08-14T12:59:37.526Z,99.90
2023-08-14T13:02:05.427Z,99.90
2023-08-14T13:04:36.264Z,99.90
2023-08-14T13:07:04.739Z,99.90
2023-08-14T13:09:32.592Z,99.90
2023-08-14T13:12:02.107Z,99.90
2023-08-14T13:14:31.338Z,99.90
2023-08-14T13:16:59.190Z,99.90
2023-08-14T13:19:27.024Z,99.90
2023-08-14T13:21:54.787Z,99.90
2023-08-14T13:24:22.603Z,99.90
2023-08-14T13:26:50.443Z,99.90
2023-08-14T13:29:18.328Z,97.30
2023-08-14T13:31:48.031Z,99.90
2023-08-14T13:34:15.922Z,85.40
2023-08-14T13:36:43.703Z,86.10
2023-08-14T13:39:11.597Z,83.10
2023-08-14T13:41:40.535Z,78.90
2023-08-14T13:44:08.418Z,81.10
2023-08-14T13:46:36.534Z,81.60
2023-08-14T13:49:07.722Z,78.90
2023-08-14T13:51:35.750Z,78.90
2023-08-14T13:54:03.971Z,76.20
2023-08-14T13:56:31.858Z,77.80
2023-08-14T13:59:00.447Z,76.40
2023-08-14T14:01:28.400Z,74.20
2023-08-14T14:03:56.286Z,76.50
2023-08-14T14:06:25.415Z,73.70
2023-08-14T14:08:53.228Z,73.70
2023-08-14T14:11:21.088Z,73.10
2023-08-14T14:13:48.915Z,73.00
2023-08-14T14:16:16.742Z,75.20
2023-08-14T14:18:44.567Z,75.70
2023-08-14T14:21:12.492Z,75.70
2023-08-14T14:23:41.629Z,74.40
2023-08-14T14:26:09.483Z,73.90
2023-08-14T14:28:37.252Z,74.30
2023-08-14T14:31:07.905Z,75.70
2023-08-14T14:33:35.767Z,77.00
2023-08-14T14:36:03.624Z,78.10
2023-08-14T14:38:31.400Z,79.40
2023-08-14T14:41:03.918Z,79.00
2023-08-14T14:43:31.686Z,78.00
2023-08-14T14:45:59.548Z,78.50
2023-08-14T14:48:27.403Z,77.30
2023-08-14T14:50:55.656Z,75.70
2023-08-14T14:53:23.844Z,74.80
2023-08-14T14:55:51.759Z,73.00
2023-08-14T14:58:21.226Z,70.50
2023-08-14T15:00:50.832Z,68.80
2023-08-14T15:03:18.944Z,66.80
2023-08-14T15:05:50.784Z,65.20
2023-08-14T15:08:18.668Z,63.20
2023-08-14T15:10:46.609Z,63.60
2023-08-14T15:13:14.678Z,63.50
2023-08-14T15:15:43.806Z,63.60
2023-08-14T15:18:11.717Z,63.20
2023-08-14T15:20:39.552Z,62.90
2023-08-14T15:23:07.373Z,60.50
2023-08-14T15:25:35.440Z,60.30
2023-08-14T15:28:03.264Z,59.80
2023-08-14T15:30:31.062Z,58.40
2023-08-14T15:33:00.276Z,55.00
2023-08-14T15:35:28.226Z,58.50
2023-08-14T15:37:56.010Z,59.40
2023-08-14T15:40:24.147Z,57.90
2023-08-14T15:42:51.987Z,59.20
2023-08-14T15:45:20.140Z,59.40
2023-08-14T15:47:48.214Z,59.00
2023-08-14T15:50:17.350Z,57.30
2023-08-14T15:52:45.145Z,57.60
2023-08-14T15:55:13.024Z,56.50
2023-08-14T15:57:40.816Z,55.80
2023-08-14T16:00:11.026Z,56.00
2023-08-14T16:02:38.810Z,55.30
2023-08-14T16:05:07.540Z,56.00
2023-08-14T16:07:36.897Z,45.00
2023-08-14T16:10:05.433Z,46.10
2023-08-14T16:12:33.250Z,46.60
2023-08-14T16:15:01.266Z,45.70
2023-08-14T16:17:29.620Z,44.90
2023-08-14T16:19:57.614Z,45.20
2023-08-14T16:22:25.474Z,45.60
2023-08-14T16:24:54.663Z,46.60
2023-08-14T16:27:22.747Z,49.80
2023-08-14T16:29:50.762Z,50.30
2023-08-14T16:32:18.545Z,50.50
2023-08-14T16:34:48.518Z,49.80
2023-08-14T16:37:16.365Z,49.10
2023-08-14T16:39:44.144Z,51.20
2023-08-14T16:42:13.278Z,51.70
2023-08-14T16:44:42.290Z,51.80
2023-08-14T16:47:10.141Z,51.60
2023-08-14T16:49:37.946Z,53.00
2023-08-14T16:54:47.184Z,54.40
2023-08-14T16:57:16.449Z,55.40
2023-08-14T16:59:44.319Z,59.30
2023-08-14T17:02:12.176Z,60.00
2023-08-14T17:04:40.072Z,61.50
2023-08-14T17:07:08.088Z,63.80
2023-08-14T17:09:35.992Z,63.80
2023-08-14T17:12:03.845Z,64.80
2023-08-14T17:14:33.074Z,64.50
2023-08-14T17:17:00.946Z,64.90
2023-08-14T17:19:28.980Z,66.10
2023-08-14T17:21:56.828Z,67.70
2023-08-14T17:24:24.807Z,68.90
2023-08-14T17:26:52.651Z,67.90
2023-08-14T17:29:21.627Z,67.20
2023-08-14T17:31:51.832Z,67.70
2023-08-14T17:34:19.729Z,70.10
2023-08-14T17:36:48.214Z,71.40
2023-08-14T17:39:16.144Z,72.00
2023-08-14T17:41:44.027Z,71.20
2023-08-14T17:44:11.868Z,71.20
2023-08-14T17:46:39.774Z,70.20
2023-08-14T17:49:08.959Z,70.80
2023-08-14T17:51:36.799Z,71.00
2023-08-14T17:54:05.446Z,70.90
2023-08-14T17:56:33.300Z,70.30
2023-08-14T17:59:01.153Z,70.40
2023-08-14T18:01:31.074Z,69.70
2023-08-14T18:04:00.648Z,70.10
2023-08-14T18:06:29.892Z,68.00
2023-08-14T18:08:57.803Z,69.80
2023-08-14T18:11:25.697Z,68.10
2023-08-14T18:13:53.828Z,69.70
2023-08-14T18:16:21.810Z,69.70
2023-08-14T18:18:51.525Z,70.30
2023-08-14T18:21:27.676Z,70.50
2023-08-14T18:24:05.724Z,70.80
2023-08-14T18:26:33.542Z,70.90
2023-08-14T18:29:02.114Z,71.40
2023-08-14T18:31:29.965Z,70.90
2023-08-14T18:33:57.876Z,71.60
2023-08-14T18:36:25.892Z,73.00
2023-08-14T18:38:53.772Z,73.30
2023-08-14T18:41:23.041Z,74.10
2023-08-14T18:43:50.950Z,75.70
2023-08-14T18:46:18.925Z,76.90
2023-08-14T18:48:46.845Z,77.70
2023-08-14T18:51:14.803Z,79.00
2023-08-14T18:53:42.963Z,79.50
2023-08-14T18:56:10.833Z,80.40
2023-08-14T18:58:40.043Z,81.20
2023-08-14T19:01:07.962Z,81.50
2023-08-14T19:03:35.859Z,82.20
2023-08-14T19:06:04.114Z,83.30
2023-08-14T19:08:31.985Z,84.00
2023-08-14T19:10:59.830Z,84.60
2023-08-14T19:13:27.648Z,84.20
2023-08-14T19:15:57.278Z,84.20
2023-08-14T19:18:25.146Z,85.10
2023-08-14T19:20:53.060Z,86.30
2023-08-14T19:23:20.931Z,87.20
2023-08-14T19:25:48.806Z,87.10
2023-08-14T19:28:22.233Z,86.00
2023-08-14T19:30:51.119Z,84.50
2023-08-14T19:33:20.426Z,84.90
2023-08-14T19:35:48.295Z,84.50
2023-08-14T19:38:16.128Z,84.80
2023-08-14T19:40:44.005Z,84.60
2023-08-14T19:43:11.865Z,84.20
2023-08-14T19:45:39.703Z,84.00
2023-08-14T19:48:08.110Z,84.30
2023-08-14T19:50:37.407Z,84.10
2023-08-14T19:53:05.678Z,83.90
2023-08-14T19:55:33.504Z,83.50
2023-08-14T19:58:01.355Z,84.40
2023-08-14T20:00:29.233Z,85.10
2023-08-14T20:02:57.191Z,85.60
2023-08-14T20:05:25.260Z,85.90
2023-08-14T20:07:54.446Z,86.90
2023-08-14T20:10:22.349Z,87.60
2023-08-14T20:12:50.412Z,89.50
2023-08-14T20:15:18.371Z,90.00
2023-08-14T20:17:46.330Z,90.20
2023-08-14T20:20:18.455Z,90.50
2023-08-14T20:22:46.384Z,90.10
2023-08-14T20:25:15.894Z,89.70
2023-08-14T20:27:44.331Z,89.80
2023-08-14T20:30:13.714Z,90.10
2023-08-14T20:32:41.635Z,91.30
2023-08-14T20:35:10.169Z,91.60
2023-08-14T20:37:37.997Z,92.50
2023-08-14T20:40:07.015Z,92.70
2023-08-14T20:42:36.208Z,92.70
2023-08-14T20:45:04.332Z,92.20
2023-08-14T20:47:32.256Z,91.60
2023-08-14T20:50:00.398Z,91.60
2023-08-14T20:52:28.309Z,91.70
2023-08-14T20:54:56.150Z,91.70
2023-08-14T20:57:24.017Z,91.60
2023-08-14T20:59:53.169Z,91.20
2023-08-14T21:02:21.048Z,91.20
2023-08-14T21:04:48.923Z,91.30
2023-08-14T21:07:16.847Z,91.50
2023-08-14T21:09:44.690Z,91.00
2023-08-14T21:12:12.519Z,89.60
2023-08-14T21:14:40.356Z,89.10
2023-08-14T21:17:09.679Z,88.80
2023-08-14T21:19:37.518Z,88.20
2023-08-14T21:22:05.493Z,87.90
2023-08-14T21:24:33.341Z,88.30
2023-08-14T21:27:01.234Z,89.90
2023-08-14T21:29:29.181Z,90.50
2023-08-14T21:31:57.037Z,90.40
2023-08-14T21:34:26.287Z,92.60
2023-08-14T21:36:55.163Z,93.50
2023-08-14T21:39:23.828Z,93.90
2023-08-14T21:41:51.669Z,94.00
2023-08-14T21:44:19.660Z,94.00
2023-08-14T21:46:47.525Z,93.50
2023-08-14T21:49:15.592Z,93.80
2023-08-14T21:51:44.833Z,94.30
2023-08-14T21:54:18.465Z,94.20
2023-08-14T21:56:46.955Z,93.80
2023-08-14T21:59:14.920Z,93.50
2023-08-14T22:01:43.905Z,93.20
2023-08-14T22:04:11.925Z,94.00
2023-08-14T22:06:39.794Z,93.10
2023-08-14T22:09:09.910Z,93.20
2023-08-14T22:11:37.752Z,93.20
2023-08-14T22:14:06.089Z,93.60
2023-08-14T22:16:34.067Z,94.10
2023-08-14T22:19:01.976Z,94.20
2023-08-14T22:21:29.896Z,93.30
2023-08-14T22:23:57.731Z,94.30
2023-08-14T22:26:27.023Z,93.90
2023-08-14T22:28:54.938Z,93.80
2023-08-14T22:31:23.670Z,93.70
2023-08-14T22:33:51.550Z,94.20
2023-08-14T22:36:19.435Z,93.40
2023-08-14T22:38:47.309Z,93.10
2023-08-14T22:41:15.184Z,93.00
2023-08-14T22:43:44.393Z,93.30
2023-08-14T22:46:12.209Z,92.90
2023-08-14T22:48:40.059Z,92.30
2023-08-14T22:51:07.985Z,93.10
2023-08-14T22:53:35.829Z,93.50
2023-08-14T22:56:03.678Z,94.20
2023-08-14T22:58:31.534Z,94.50
2023-08-14T23:01:00.731Z,94.50
2023-08-14T23:03:28.604Z,95.00
2023-08-14T23:05:56.425Z,96.00
2023-08-14T23:08:24.448Z,96.30
2023-08-14T23:10:52.322Z,96.70
2023-08-14T23:13:20.183Z,96.90
2023-08-14T23:15:48.065Z,97.10
2023-08-14T23:18:17.260Z,97.30
2023-08-14T23:20:45.513Z,98.60
2023-08-14T23:23:13.381Z,99.40
2023-08-14T23:25:41.288Z,96.70
2023-08-14T23:28:09.158Z,94.70
2023-08-14T23:30:38.643Z,95.30
2023-08-14T23:33:07.102Z,95.60
2023-08-14T23:35:36.527Z,96.50
2023-08-14T23:38:05.107Z,97.00
2023-08-14T23:40:33.004Z,97.40
2023-08-14T23:43:00.896Z,97.70
2023-08-14T23:45:28.764Z,97.50
2023-08-14T23:47:56.602Z,96.50
2023-08-14T23:50:24.478Z,96.10
2023-08-14T23:52:54.001Z,96.30
2023-08-14T23:55:21.856Z,96.20
2023-08-14T23:57:49.723Z,96.10
